Time;durP1;ratioP1;P1;durP2;ratioP2;P2;SDS_P1;SDS_P2;PMS_P1;PMS_P2;Temp;Humidity;BMP_temperature;BMP_pressure;BME280_temperature;BME280_humidity;BME280_pressure;Samples;Min_cycle;Max_cycle;Signal;HPM_P1;HPM_P2
2022/03/17 00:00:56;;;;;;;22.40;15.07;;;10.00;99.90;;;;;;4994785;28;20071;-87
2022/03/17 00:03:23;;;;;;;23.40;15.23;;;10.00;99.90;;;;;;4992655;28;20045;-87
2022/03/17 00:05:49;;;;;;;24.17;16.02;;;11.20;99.90;;;;;;5012362;28;20126;-87
2022/03/17 00:08:16;;;;;;;25.05;15.18;;;10.00;99.90;;;;;;4988061;28;20398;-87
2022/03/17 00:10:42;;;;;;;27.38;16.23;;;10.00;99.90;;;;;;4996117;28;20037;-88
2022/03/17 00:13:08;;;;;;;23.98;15.68;;;10.00;99.90;;;;;;4976310;28;20044;-87
2022/03/17 00:15:33;;;;;;;23.33;15.38;;;10.00;99.90;;;;;;4979226;28;20034;-87
2022/03/17 00:17:59;;;;;;;23.58;14.60;;;10.00;99.90;;;;;;5007100;28;20439;-88
2022/03/17 00:20:25;;;;;;;24.73;15.95;;;10.00;99.90;;;;;;4978816;28;20026;-88
2022/03/17 00:22:51;;;;;;;24.85;15.63;;;9.90;99.90;;;;;;5027015;28;20053;-87
2022/03/17 00:25:17;;;;;;;25.67;16.63;;;9.90;99.90;;;;;;5027048;28;20091;-87
2022/03/17 00:27:43;;;;;;;24.83;15.52;;;9.90;99.90;;;;;;4981861;28;20045;-88
2022/03/17 00:30:10;;;;;;;27.42;16.42;;;9.90;99.90;;;;;;4988442;28;20146;-87
2022/03/17 00:32:38;;;;;;;24.95;15.70;;;9.90;99.90;;;;;;4995118;28;20072;-87
2022/03/17 00:37:50;;;;;;;23.80;15.55;;;9.90;99.90;;;;;;5010143;28;20437;-87
2022/03/17 00:40:16;;;;;;;24.40;15.38;;;9.90;99.90;;;;;;4977981;28;20041;-87
2022/03/17 00:42:41;;;;;;;24.10;16.20;;;9.90;99.90;;;;;;4977720;28;20096;-88
2022/03/17 00:45:09;;;;;;;26.75;15.95;;;9.90;99.90;;;;;;4990602;28;20037;-87
2022/03/17 00:47:36;;;;;;;25.48;16.65;;;9.90;99.90;;;;;;4980493;28;20081;-87
2022/03/17 00:50:02;;;;;;;23.75;15.38;;;9.90;99.90;;;;;;5013220;28;20099;-88
2022/03/17 00:52:28;;;;;;;23.95;16.00;;;9.80;99.90;;;;;;4979546;28;20037;-87
2022/03/17 00:54:53;;;;;;;24.77;16.38;;;8.70;99.90;;;;;;4995611;28;20456;-87
2022/03/17 00:57:19;;;;;;;24.08;15.82;;;10.50;99.90;;;;;;4990428;28;20042;-88
2022/03/17 00:59:45;;;;;;;25.42;16.05;;;9.80;99.90;;;;;;4984969;28;20532;-88
2022/03/17 01:02:10;;;;;;;23.70;15.63;;;9.80;99.90;;;;;;4962905;28;20045;-87
2022/03/17 01:04:36;;;;;;;24.27;15.85;;;9.80;99.90;;;;;;5005733;28;20383;-88
2022/03/17 01:07:02;;;;;;;24.95;15.20;;;9.80;99.90;;;;;;4995314;28;20052;-88
2022/03/17 01:09:28;;;;;;;25.30;16.40;;;9.80;99.90;;;;;;4993777;28;20049;-88
2022/03/17 01:11:54;;;;;;;25.10;16.27;;;9.80;99.90;;;;;;4976490;28;20037;-88
2022/03/17 01:14:20;;;;;;;23.92;16.38;;;9.80;99.90;;;;;;4996341;28;20075;-87
2022/03/17 01:16:46;;;;;;;26.10;16.63;;;9.80;99.90;;;;;;4963812;28;20069;-87
2022/03/17 01:19:12;;;;;;;26.40;17.10;;;11.00;99.90;;;;;;5024784;28;20033;-87
2022/03/17 01:21:37;;;;;;;22.10;15.07;;;9.90;99.90;;;;;;4976322;28;20050;-89
2022/03/17 01:24:04;;;;;;;25.30;15.88;;;9.80;99.90;;;;;;5000936;28;20054;-89
2022/03/17 01:26:30;;;;;;;23.40;15.82;;;9.70;99.90;;;;;;4976933;28;20069;-88
2022/03/17 01:28:56;;;;;;;23.85;15.65;;;9.70;99.90;;;;;;4995186;28;20041;-87
2022/03/17 01:31:24;;;;;;;25.20;16.23;;;9.70;99.90;;;;;;4988941;28;20029;-87
2022/03/17 01:33:50;;;;;;;26.42;16.55;;;9.90;99.90;;;;;;4971884;28;20517;-87
2022/03/17 01:36:16;;;;;;;24.48;15.82;;;9.70;99.90;;;;;;5014996;28;20037;-88
2022/03/17 01:38:42;;;;;;;24.88;15.82;;;10.70;99.90;;;;;;4997827;28;20164;-88
2022/03/17 01:41:08;;;;;;;27.20;16.60;;;9.70;99.90;;;;;;4993438;28;20051;-88
2022/03/17 01:43:34;;;;;;;25.90;16.27;;;10.40;99.90;;;;;;4989917;28;20120;-87
2022/03/17 01:45:59;;;;;;;27.98;16.88;;;10.50;99.90;;;;;;4977781;28;20380;-87
2022/03/17 01:48:25;;;;;;;23.50;16.38;;;9.70;99.90;;;;;;4988532;28;20030;-89
2022/03/17 01:50:53;;;;;;;24.63;16.75;;;9.90;99.90;;;;;;4995596;28;20134;-88
2022/03/17 01:53:21;;;;;;;28.80;17.13;;;9.70;99.90;;;;;;4981861;28;20111;-88
2022/03/17 01:55:47;;;;;;;26.60;17.20;;;9.70;99.90;;;;;;4990441;28;20064;-88
2022/03/17 01:58:13;;;;;;;25.02;17.10;;;9.80;99.90;;;;;;4987386;28;20416;-88
2022/03/17 02:00:40;;;;;;;27.88;17.85;;;9.70;99.90;;;;;;4983424;28;20042;-87
2022/03/17 02:03:06;;;;;;;24.58;16.88;;;10.10;99.90;;;;;;5001134;28;20119;-86
2022/03/17 02:05:34;;;;;;;25.45;17.60;;;10.20;99.90;;;;;;5009462;28;20391;-88
2022/03/17 02:08:00;;;;;;;26.30;16.45;;;9.60;99.90;;;;;;5028082;28;20561;-88
2022/03/17 02:10:26;;;;;;;27.77;16.65;;;9.60;99.90;;;;;;4993493;28;20025;-86
2022/03/17 02:13:10;;;;;;;27.50;17.27;;;9.60;99.90;;;;;;4998387;28;20099;-88
2022/03/17 02:15:36;;;;;;;28.13;17.08;;;9.60;99.90;;;;;;5015256;28;20073;-87
2022/03/17 02:18:06;;;;;;;27.13;18.02;;;9.60;99.90;;;;;;4977861;28;20042;-87
2022/03/17 02:20:33;;;;;;;26.30;16.23;;;9.60;99.90;;;;;;5018836;28;20088;-88
2022/03/17 02:25:50;;;;;;;29.63;18.15;;;9.70;99.90;;;;;;5030788;28;20095;-88
2022/03/17 02:28:16;;;;;;;25.48;17.65;;;9.70;99.90;;;;;;5017647;28;20037;-87
2022/03/17 02:30:42;;;;;;;26.10;17.10;;;10.40;99.90;;;;;;5001063;28;20044;-87
2022/03/17 02:33:10;;;;;;;27.58;16.98;;;9.70;99.90;;;;;;4978610;28;20037;-88
2022/03/17 02:35:37;;;;;;;26.25;16.83;;;9.70;99.90;;;;;;5009166;28;20040;-88
2022/03/17 02:38:04;;;;;;;27.23;17.98;;;10.40;99.90;;;;;;5028967;28;20073;-88
2022/03/17 02:40:31;;;;;;;25.45;17.35;;;9.70;99.90;;;;;;5030703;28;20041;-88
2022/03/17 02:42:58;;;;;;;27.55;16.70;;;9.80;99.90;;;;;;5016150;28;20033;-88
2022/03/17 02:45:24;;;;;;;26.65;17.77;;;9.70;99.90;;;;;;4997187;28;20124;-87
2022/03/17 02:47:52;;;;;;;28.60;17.65;;;9.80;99.90;;;;;;5014848;28;20041;-88
2022/03/17 02:50:18;;;;;;;27.75;17.35;;;9.80;99.90;;;;;;5018333;28;20532;-88
2022/03/17 02:52:44;;;;;;;25.52;17.08;;;9.80;99.90;;;;;;4994119;28;20041;-88
2022/03/17 02:55:11;;;;;;;28.63;17.30;;;9.80;99.90;;;;;;5028972;28;20110;-88
2022/03/17 02:57:41;;;;;;;26.20;17.35;;;9.80;99.90;;;;;;5001414;28;20112;-87
2022/03/17 03:00:09;;;;;;;27.60;17.50;;;9.80;99.90;;;;;;5017673;28;20040;-88
2022/03/17 03:02:37;;;;;;;26.35;16.85;;;9.80;99.90;;;;;;5021299;28;20494;-88
2022/03/17 03:05:04;;;;;;;25.02;16.63;;;9.80;99.90;;;;;;5023319;28;20120;-86
2022/03/17 03:07:30;;;;;;;26.00;16.67;;;9.90;99.90;;;;;;5013624;28;20087;-87
2022/03/17 03:09:56;;;;;;;24.45;16.30;;;9.90;99.90;;;;;;4990294;28;20516;-87
2022/03/17 03:12:22;;;;;;;28.23;17.38;;;9.90;99.90;;;;;;4999972;28;20044;-87
2022/03/17 03:14:48;;;;;;;25.27;16.85;;;9.90;99.90;;;;;;5000329;28;20049;-87
2022/03/17 03:17:14;;;;;;;23.65;15.95;;;9.90;99.90;;;;;;5015777;28;20405;-87
2022/03/17 03:19:39;;;;;;;25.20;16.75;;;9.90;99.90;;;;;;5014196;28;20033;-87
2022/03/17 03:22:05;;;;;;;27.75;17.40;;;10.20;99.90;;;;;;4999609;28;20072;-87
2022/03/17 03:24:31;;;;;;;25.90;16.85;;;10.00;99.90;;;;;;5006247;28;20037;-87
2022/03/17 03:26:57;;;;;;;24.17;16.65;;;9.90;99.90;;;;;;4997374;28;20500;-88
2022/03/17 03:29:23;;;;;;;24.30;16.20;;;10.00;99.90;;;;;;5017298;28;20083;-88
2022/03/17 03:31:57;;;;;;;25.77;17.30;;;10.00;99.90;;;;;;4984305;28;20029;-88
2022/03/17 03:34:24;;;;;;;28.90;17.48;;;10.00;99.90;;;;;;5030107;28;20090;-88
2022/03/17 03:39:35;;;;;;;23.98;16.63;;;10.20;99.90;;;;;;5012393;28;20045;-88
2022/03/17 03:42:02;;;;;;;24.33;16.60;;;10.00;99.90;;;;;;5032247;28;20048;-87
2022/03/17 03:44:28;;;;;;;25.50;17.95;;;10.00;99.90;;;;;;5014437;28;20033;-88
2022/03/17 03:46:54;;;;;;;26.65;17.25;;;10.00;99.90;;;;;;4997539;28;20043;-88
2022/03/17 03:49:20;;;;;;;26.95;17.25;;;10.00;99.90;;;;;;5043310;28;20053;-86
2022/03/17 03:51:45;;;;;;;23.98;16.75;;;11.10;99.90;;;;;;4989228;28;20065;-87
2022/03/17 03:54:15;;;;;;;25.02;17.52;;;10.00;99.90;;;;;;5029895;28;20045;-87
2022/03/17 03:57:01;;;;;;;25.95;17.10;;;10.00;99.90;;;;;;5016872;28;20106;-87
2022/03/17 03:59:29;;;;;;;25.80;16.50;;;10.00;99.90;;;;;;5032794;28;20084;-87
2022/03/17 04:02:07;;;;;;;29.20;17.15;;;10.00;99.90;;;;;;5007759;28;20056;-89
2022/03/17 04:04:34;;;;;;;27.23;17.92;;;10.00;99.90;;;;;;5027963;28;20490;-86
2022/03/17 04:07:04;;;;;;;25.48;17.20;;;10.10;99.90;;;;;;4983187;28;20465;-87
2022/03/17 04:09:38;;;;;;;24.58;17.10;;;10.00;99.90;;;;;;5012232;28;20099;-88
2022/03/17 04:12:04;;;;;;;25.33;17.08;;;10.10;99.90;;;;;;5015633;28;20041;-87
2022/03/17 04:14:31;;;;;;;24.95;17.55;;;10.10;99.90;;;;;;5005524;28;20048;-88
2022/03/17 04:16:58;;;;;;;25.58;17.77;;;10.10;99.90;;;;;;5010606;28;20055;-88
2022/03/17 04:19:24;;;;;;;26.23;16.77;;;10.10;99.90;;;;;;5007189;28;20043;-88
2022/03/17 04:21:50;;;;;;;23.17;16.42;;;10.10;99.90;;;;;;4973919;28;20062;-88
2022/03/17 04:24:17;;;;;;;25.92;18.52;;;10.10;99.90;;;;;;4978918;28;20049;-88
2022/03/17 04:26:44;;;;;;;28.90;19.17;;;10.10;99.90;;;;;;4996839;28;20060;-88
2022/03/17 04:29:11;;;;;;;27.15;18.70;;;10.10;99.90;;;;;;4980618;28;20460;-87
2022/03/17 04:31:38;;;;;;;26.88;18.65;;;10.10;99.90;;;;;;5008104;28;20041;-88
2022/03/17 04:34:04;;;;;;;29.38;19.85;;;10.10;99.90;;;;;;4990224;28;20137;-86
2022/03/17 04:36:31;;;;;;;29.05;20.30;;;10.10;99.90;;;;;;4993745;28;20145;-87
2022/03/17 04:38:57;;;;;;;29.88;21.52;;;10.40;99.90;;;;;;4978277;28;20044;-87
2022/03/17 04:41:23;;;;;;;30.17;21.77;;;10.10;99.90;;;;;;4986519;28;20042;-88
2022/03/17 04:43:49;;;;;;;31.08;21.48;;;10.00;99.90;;;;;;5005904;28;20093;-86
2022/03/17 04:46:16;;;;;;;30.70;22.42;;;10.00;99.90;;;;;;5001167;28;20104;-87
2022/03/17 04:48:42;;;;;;;28.65;20.90;;;10.20;99.90;;;;;;4979246;28;20041;-86
2022/03/17 04:51:08;;;;;;;31.55;22.40;;;9.90;99.90;;;;;;4988645;28;20041;-87
2022/03/17 04:53:33;;;;;;;33.35;23.52;;;9.90;99.90;;;;;;4986477;28;20042;-85
2022/03/17 04:56:11;;;;;;;32.40;22.83;;;9.80;99.90;;;;;;4995281;28;20076;-88
2022/03/17 04:58:41;;;;;;;31.83;23.17;;;9.80;99.90;;;;;;4995037;28;20042;-86
2022/03/17 05:01:08;;;;;;;31.92;23.45;;;9.70;99.90;;;;;;4974048;28;20041;-87
2022/03/17 05:03:34;;;;;;;32.45;23.88;;;9.70;99.90;;;;;;4977958;28;20041;-86
2022/03/17 05:06:02;;;;;;;36.35;24.05;;;9.60;99.90;;;;;;4987098;28;20557;-86
2022/03/17 05:08:27;;;;;;;37.13;25.80;;;9.60;99.90;;;;;;4985233;28;20037;-87
2022/03/17 05:10:54;;;;;;;34.75;24.90;;;9.70;99.90;;;;;;4991179;28;20084;-87
2022/03/17 05:13:21;;;;;;;36.88;25.65;;;9.50;99.90;;;;;;4994814;28;20038;-87
2022/03/17 05:15:47;;;;;;;37.53;25.30;;;9.50;99.90;;;;;;4981255;28;20037;-87
2022/03/17 05:18:13;;;;;;;35.72;25.45;;;9.90;99.90;;;;;;4979405;28;20098;-87
2022/03/17 05:20:40;;;;;;;38.03;25.98;;;10.30;99.90;;;;;;4990523;28;20033;-87
2022/03/17 05:23:14;;;;;;;39.40;27.08;;;9.40;99.90;;;;;;5021364;28;20057;-87
2022/03/17 05:25:42;;;;;;;39.13;28.00;;;9.40;99.90;;;;;;5030730;28;20110;-87
2022/03/17 05:28:08;;;;;;;36.13;25.48;;;9.30;99.90;;;;;;5018321;28;20410;-87
2022/03/17 05:30:35;;;;;;;38.97;26.02;;;9.60;99.90;;;;;;5021532;28;20486;-87
2022/03/17 05:33:01;;;;;;;31.95;22.23;;;10.40;99.90;;;;;;5034031;28;20140;-87
2022/03/17 05:35:28;;;;;;;27.88;19.58;;;9.30;99.90;;;;;;5015067;28;20187;-86
2022/03/17 05:37:54;;;;;;;18.40;11.57;;;9.30;99.90;;;;;;5026139;28;20044;-86
2022/03/17 05:40:21;;;;;;;14.13;8.07;;;9.20;99.90;;;;;;5030059;28;20494;-87
2022/03/17 05:42:53;;;;;;;12.30;6.93;;;9.10;99.90;;;;;;5028994;28;20037;-86
2022/03/17 05:45:21;;;;;;;11.70;6.40;;;9.00;99.90;;;;;;5010082;28;20529;-85
2022/03/17 05:47:48;;;;;;;11.13;5.80;;;8.90;99.90;;;;;;5016276;28;20029;-86
2022/03/17 05:50:16;;;;;;;10.90;5.95;;;9.30;99.90;;;;;;5003758;28;20036;-85
2022/03/17 05:52:43;;;;;;;11.25;6.18;;;8.70;99.90;;;;;;5008444;28;20044;-86
2022/03/17 05:55:10;;;;;;;10.63;6.07;;;9.30;99.90;;;;;;5014381;28;20074;-86
2022/03/17 05:57:37;;;;;;;11.50;5.97;;;8.60;99.90;;;;;;5025949;28;20076;-86
2022/03/17 06:00:08;;;;;;;12.27;7.00;;;8.60;99.90;;;;;;4995455;28;20505;-85
2022/03/17 06:02:34;;;;;;;11.73;6.47;;;8.60;99.90;;;;;;5032419;28;20179;-85
2022/03/17 06:05:01;;;;;;;14.32;7.43;;;8.50;99.90;;;;;;5021073;28;20429;-86
2022/03/17 06:07:44;;;;;;;17.45;8.48;;;9.00;99.90;;;;;;4990088;28;20175;-86
2022/03/17 06:10:14;;;;;;;17.65;8.88;;;8.50;99.90;;;;;;5019797;28;20037;-84
2022/03/17 06:12:41;;;;;;;18.30;9.48;;;8.40;99.90;;;;;;5031911;28;20044;-86
2022/03/17 06:15:07;;;;;;;18.58;9.52;;;9.50;99.90;;;;;;4996499;28;20045;-87
2022/03/17 06:17:37;;;;;;;17.50;8.43;;;8.40;99.90;;;;;;5016485;28;20061;-86
2022/03/17 06:20:04;;;;;;;18.92;9.65;;;8.70;99.90;;;;;;5012568;28;20072;-86
2022/03/17 06:22:30;;;;;;;15.98;8.88;;;8.30;99.90;;;;;;5000310;28;20053;-87
2022/03/17 06:24:55;;;;;;;19.50;9.15;;;8.30;99.90;;;;;;5008895;28;20041;-85
2022/03/17 06:27:21;;;;;;;17.10;8.98;;;8.70;99.90;;;;;;5005597;28;20037;-86
2022/03/17 06:29:47;;;;;;;16.40;7.95;;;8.30;99.90;;;;;;4990218;28;20470;-86
2022/03/17 06:32:12;;;;;;;16.38;6.47;;;8.30;99.90;;;;;;4955754;28;20053;-88
2022/03/17 06:34:39;;;;;;;15.30;6.50;;;;;;;;;;4965256;28;20037;-89
2022/03/17 06:37:04;;;;;;;14.30;5.53;;;8.20;99.90;;;;;;5002306;28;20045;-90
2022/03/17 06:39:30;;;;;;;16.38;5.68;;;8.20;99.90;;;;;;4972054;28;20092;-88
2022/03/17 06:41:56;;;;;;;14.88;5.07;;;8.20;99.90;;;;;;4984844;28;20121;-89
2022/03/17 06:44:22;;;;;;;15.65;5.50;;;8.10;99.90;;;;;;4992619;28;20244;-90
2022/03/17 06:46:47;;;;;;;16.50;5.35;;;8.30;99.90;;;;;;4987128;28;20029;-86
2022/03/17 06:49:13;;;;;;;14.32;5.30;;;8.20;99.90;;;;;;4993970;28;20030;-89
2022/03/17 06:51:39;;;;;;;13.20;5.35;;;8.60;99.90;;;;;;4973467;28;20037;-89
2022/03/17 06:54:04;;;;;;;15.90;4.95;;;8.70;99.90;;;;;;4994242;28;20041;-89
2022/03/17 06:56:31;;;;;;;13.70;5.13;;;8.10;99.90;;;;;;4987921;28;20072;-86
2022/03/17 06:58:57;;;;;;;13.27;4.88;;;8.10;99.90;;;;;;4997129;28;20037;-89
2022/03/17 07:01:22;;;;;;;14.85;4.60;;;8.80;99.90;;;;;;4973568;28;20050;-88
2022/03/17 07:03:48;;;;;;;15.30;4.20;;;8.10;99.90;;;;;;4975103;28;20052;-89
2022/03/17 07:06:14;;;;;;;12.15;3.85;;;8.10;99.90;;;;;;4980431;28;20049;-89
2022/03/17 07:08:39;;;;;;;12.10;3.40;;;9.50;99.90;;;;;;4996927;28;20080;-88
2022/03/17 07:11:05;;;;;;;11.25;3.25;;;8.10;99.90;;;;;;4990627;28;20045;-85
2022/03/17 07:13:31;;;;;;;10.90;3.03;;;8.00;99.90;;;;;;4960233;28;20141;-86
2022/03/17 07:15:56;;;;;;;10.52;2.63;;;8.10;99.90;;;;;;4978912;28;20120;-85
2022/03/17 07:18:22;;;;;;;11.40;2.78;;;8.00;99.90;;;;;;4976899;28;20502;-84
2022/03/17 07:20:48;;;;;;;12.93;2.50;;;8.00;99.90;;;;;;4981947;28;20072;-85
2022/03/17 07:23:14;;;;;;;11.05;2.97;;;8.00;99.90;;;;;;4989445;28;20484;-85
2022/03/17 07:25:40;;;;;;;10.60;2.40;;;8.80;99.90;;;;;;4998437;28;20120;-84
2022/03/17 07:28:05;;;;;;;10.10;2.25;;;8.00;99.90;;;;;;4998051;28;20037;-83
2022/03/17 07:30:31;;;;;;;8.40;2.25;;;8.00;99.90;;;;;;4997401;28;20101;-85
2022/03/17 07:32:59;;;;;;;12.63;2.40;;;8.00;99.90;;;;;;4996228;28;20029;-84
2022/03/17 07:35:28;;;;;;;13.02;2.50;;;8.00;99.90;;;;;;5030515;28;20060;-84
2022/03/17 07:37:58;;;;;;;10.50;2.20;;;8.00;99.90;;;;;;5011407;28;20039;-85
2022/03/17 07:40:24;;;;;;;14.88;2.58;;;8.00;99.90;;;;;;5032129;28;20044;-87
2022/03/17 07:42:50;;;;;;;13.27;2.33;;;8.40;99.90;;;;;;5014688;28;20067;-85
2022/03/17 07:45:15;;;;;;;11.25;2.50;;;9.40;99.90;;;;;;5001989;28;20438;-84
2022/03/17 07:47:50;;;;;;;16.27;2.78;;;8.00;99.90;;;;;;4979107;28;20041;-88
2022/03/17 07:50:17;;;;;;;10.07;2.40;;;7.90;99.90;;;;;;5011017;28;20049;-85
2022/03/17 07:52:42;;;;;;;8.95;2.17;;;7.90;99.90;;;;;;4993494;28;20045;-84
2022/03/17 07:55:08;;;;;;;10.60;2.15;;;7.90;99.90;;;;;;5005501;28;20122;-84
2022/03/17 07:57:35;;;;;;;16.00;2.67;;;7.90;99.90;;;;;;5018207;28;20037;-85
2022/03/17 08:00:03;;;;;;;10.10;2.55;;;7.90;99.90;;;;;;5030307;28;20040;-85
2022/03/17 08:02:30;;;;;;;11.43;2.25;;;7.90;99.90;;;;;;5007997;28;20044;-84
2022/03/17 08:04:56;;;;;;;14.98;2.88;;;7.90;99.90;;;;;;5014763;28;20715;-87
2022/03/17 08:07:22;;;;;;;10.50;2.38;;;9.00;99.90;;;;;;5017111;28;20049;-84
2022/03/17 08:09:48;;;;;;;12.52;2.60;;;7.80;99.90;;;;;;5016265;28;20122;-87
2022/03/17 08:12:14;;;;;;;14.77;2.30;;;7.90;99.90;;;;;;5008998;28;20034;-85
2022/03/17 08:14:40;;;;;;;14.60;3.08;;;8.40;99.90;;;;;;5024517;28;20037;-86
2022/03/17 08:17:06;;;;;;;11.45;2.47;;;8.70;99.90;;;;;;4999925;28;20494;-85
2022/03/17 08:19:31;;;;;;;13.88;2.58;;;7.90;99.90;;;;;;4998943;28;20157;-84
2022/03/17 08:21:58;;;;;;;14.35;2.95;;;8.70;99.90;;;;;;5010355;28;20053;-86
2022/03/17 08:24:24;;;;;;;14.25;2.80;;;7.90;99.90;;;;;;5003719;28;20468;-86
2022/03/17 08:26:51;;;;;;;18.10;3.10;;;7.90;99.90;;;;;;4956896;28;20041;-84
2022/03/17 08:29:17;;;;;;;16.52;3.00;;;8.30;99.90;;;;;;4957913;28;20037;-85
2022/03/17 08:31:43;;;;;;;15.45;2.47;;;7.90;99.90;;;;;;4963421;28;20044;-88
2022/03/17 08:34:08;;;;;;;15.45;3.15;;;9.00;99.90;;;;;;4969033;28;20037;-84
2022/03/17 08:36:34;;;;;;;13.48;2.72;;;9.30;99.90;;;;;;4989532;28;20069;-84
2022/03/17 08:39:00;;;;;;;14.23;2.60;;;8.90;99.90;;;;;;4973829;28;20089;-85
2022/03/17 08:41:25;;;;;;;13.05;2.83;;;7.90;99.90;;;;;;5004506;28;20040;-85
2022/03/17 08:43:52;;;;;;;14.02;3.08;;;7.90;99.90;;;;;;4985440;28;20088;-83
2022/03/17 08:49:19;;;;;;;17.23;3.38;;;8.70;99.90;;;;;;4989597;28;20041;-88
2022/03/17 08:51:53;;;;;;;18.63;3.47;;;8.00;99.90;;;;;;5006789;28;20029;-86
2022/03/17 08:54:22;;;;;;;17.30;3.53;;;8.00;99.90;;;;;;4997949;28;20049;-87
2022/03/17 08:57:01;;;;;;;17.05;3.35;;;8.00;99.90;;;;;;4998532;28;20395;-88
2022/03/17 08:59:31;;;;;;;17.13;2.67;;;8.00;99.90;;;;;;4966916;28;20507;-86
2022/03/17 09:02:01;;;;;;;14.95;3.20;;;7.90;99.90;;;;;;4995770;28;20041;-84
2022/03/17 09:04:28;;;;;;;10.20;2.25;;;7.90;99.90;;;;;;4992035;28;20038;-88
2022/03/17 09:06:59;;;;;;;16.67;3.15;;;7.90;99.90;;;;;;4992271;28;20045;-86
2022/03/17 09:09:43;;;;;;;14.10;2.67;;;7.90;99.90;;;;;;5003205;28;20037;-85
2022/03/17 09:12:09;;;;;;;14.40;2.72;;;7.80;99.90;;;;;;4970984;28;20049;-86
2022/03/17 09:14:36;;;;;;;11.07;2.20;;;7.80;99.90;;;;;;4985979;28;20045;-85
2022/03/17 09:17:03;;;;;;;12.23;2.80;;;;;;;;;;4991156;28;20044;-89
2022/03/17 09:19:29;;;;;;;14.93;2.70;;;7.90;99.90;;;;;;4988113;28;20033;-87
2022/03/17 09:21:54;;;;;;;14.35;2.22;;;8.00;99.90;;;;;;5014357;28;20084;-85
2022/03/17 09:24:20;;;;;;;15.68;2.85;;;8.10;99.90;;;;;;5014454;28;20516;-85
2022/03/17 09:26:46;;;;;;;11.63;2.33;;;8.20;99.90;;;;;;4981253;28;20061;-84
2022/03/17 09:29:12;;;;;;;11.38;2.75;;;9.20;99.90;;;;;;4980579;28;20512;-88
2022/03/17 09:31:37;;;;;;;10.95;2.58;;;8.20;99.90;;;;;;5006495;28;20091;-83
2022/03/17 09:34:04;;;;;;;12.68;2.65;;;8.10;99.90;;;;;;5003627;28;20480;-89
2022/03/17 09:36:29;;;;;;;9.90;2.47;;;8.00;99.90;;;;;;4992918;28;20043;-89
2022/03/17 09:41:42;;;;;;;12.68;2.80;;;8.30;99.90;;;;;;5029606;28;20464;-86
2022/03/17 09:44:07;;;;;;;13.10;2.80;;;7.90;99.90;;;;;;4991133;28;20033;-90
2022/03/17 09:46:35;;;;;;;13.35;2.80;;;8.00;99.90;;;;;;5011536;28;20402;-90
2022/03/17 09:49:04;;;;;;;10.82;2.30;;;8.70;99.90;;;;;;4995534;28;20046;-87
2022/03/17 09:51:30;;;;;;;15.82;2.80;;;8.20;99.90;;;;;;4996843;28;20033;-86
2022/03/17 09:54:00;;;;;;;16.13;2.97;;;8.20;99.90;;;;;;4989547;28;20041;-89
2022/03/17 09:56:27;;;;;;;14.05;3.22;;;9.00;99.90;;;;;;4990875;28;20033;-90
2022/03/17 09:58:58;;;;;;;12.30;2.42;;;9.60;99.90;;;;;;4991468;28;20073;-93
2022/03/17 10:01:26;;;;;;;17.73;2.78;;;9.40;99.90;;;;;;5016449;28;20591;-92
2022/03/17 10:04:00;;;;;;;12.43;2.17;;;8.40;99.90;;;;;;4996670;28;20075;-90
2022/03/17 10:06:28;;;;;;;11.80;2.25;;;8.50;99.90;;;;;;5009371;28;20045;-90
2022/03/17 10:08:55;;;;;;;12.32;2.42;;;9.60;99.90;;;;;;4997390;28;20072;-88
2022/03/17 10:11:31;;;;;;;14.00;2.50;;;8.80;99.90;;;;;;4996419;28;20040;-91
2022/03/17 10:13:59;;;;;;;10.38;2.50;;;9.00;99.90;;;;;;5031165;28;20107;-87
2022/03/17 10:16:26;;;;;;;11.02;2.15;;;9.80;99.90;;;;;;5011087;28;20484;-85
2022/03/17 10:19:00;;;;;;;12.98;2.35;;;9.10;99.90;;;;;;5016395;28;20036;-83
2022/03/17 10:21:27;;;;;;;12.35;2.40;;;9.20;99.90;;;;;;5030619;28;20117;-88
2022/03/17 10:23:59;;;;;;;11.93;2.58;;;9.30;99.90;;;;;;4984902;28;20772;-92
2022/03/17 10:26:42;;;;;;;15.13;2.90;;;9.30;99.90;;;;;;5014376;28;20076;-86
2022/03/17 10:29:12;;;;;;;10.63;2.80;;;9.30;99.90;;;;;;5011562;28;20041;-87
2022/03/17 10:31:54;;;;;;;12.82;2.70;;;10.20;99.90;;;;;;5031275;28;20442;-90
2022/03/17 10:34:22;;;;;;;17.92;3.20;;;9.50;99.90;;;;;;5001844;28;20529;-89
2022/03/17 10:36:48;;;;;;;13.85;2.88;;;10.10;99.90;;;;;;5004732;28;20107;-88
2022/03/17 10:39:14;;;;;;;15.65;2.55;;;9.30;99.90;;;;;;5028179;28;20045;-88
2022/03/17 10:41:47;;;;;;;15.18;2.38;;;9.30;99.90;;;;;;5012425;28;20047;-88
2022/03/17 10:44:15;;;;;;;14.52;2.63;;;9.40;99.90;;;;;;5009380;28;20087;-88
2022/03/17 10:47:01;;;;;;;13.38;2.33;;;9.60;99.90;;;;;;5024330;28;20037;-85
2022/03/17 10:49:30;;;;;;;14.07;2.95;;;9.70;99.90;;;;;;5001875;28;20044;-84
2022/03/17 10:51:56;;;;;;;12.93;2.30;;;9.90;99.90;;;;;;5015288;28;20096;-86
2022/03/17 10:54:23;;;;;;;16.05;2.72;;;10.00;99.90;;;;;;5045027;28;20073;-87
2022/03/17 10:57:23;;;;;;;12.07;2.42;;;9.90;99.90;;;;;;5016077;28;20036;-86
2022/03/17 10:59:53;;;;;;;13.82;2.88;;;10.00;99.90;;;;;;5027592;28;20480;-88
2022/03/17 11:02:24;;;;;;;13.18;2.83;;;10.20;99.90;;;;;;4999328;28;20640;-87
2022/03/17 11:04:51;;;;;;;15.98;3.03;;;10.50;99.90;;;;;;4983041;28;20038;-86
2022/03/17 11:07:18;;;;;;;11.05;2.13;;;11.80;99.90;;;;;;4988184;28;20091;-86
2022/03/17 11:09:48;;;;;;;13.38;2.95;;;10.40;99.90;;;;;;5016972;28;20062;-88
2022/03/17 11:12:20;;;;;;;12.52;2.97;;;10.20;99.90;;;;;;5018332;28;20432;-88
2022/03/17 11:14:49;;;;;;;19.73;3.45;;;10.00;99.90;;;;;;5017504;28;20502;-89
2022/03/17 11:17:23;;;;;;;14.55;3.05;;;9.90;99.90;;;;;;4999691;28;20759;-88
2022/03/17 11:19:49;;;;;;;11.75;2.63;;;9.90;99.90;;;;;;5034679;28;20037;-88
2022/03/17 11:22:22;;;;;;;13.85;2.85;;;9.90;99.90;;;;;;5015995;28;20114;-88
2022/03/17 11:25:08;;;;;;;;;;;10.00;99.90;;;;;;5031349;28;20065;-87
2022/03/17 11:27:45;;;;;;;11.30;2.58;;;10.00;99.90;;;;;;5018052;28;19932;-88
2022/03/17 11:30:15;;;;;;;12.68;2.33;;;10.40;99.90;;;;;;5007216;28;20053;-85
2022/03/17 11:32:54;;;;;;;13.32;3.03;;;10.50;99.90;;;;;;5010019;28;20048;-87
2022/03/17 11:35:29;;;;;;;15.35;2.80;;;10.60;99.90;;;;;;5031055;28;20215;-88
2022/03/17 11:38:14;;;;;;;14.40;2.80;;;10.20;99.90;;;;;;5013779;28;20032;-89
2022/03/17 11:41:22;;;;;;;10.73;2.28;;;10.40;99.90;;;;;;5029092;28;20441;-88
2022/03/17 11:43:48;;;;;;;13.48;2.53;;;10.70;99.90;;;;;;4934452;28;20086;-87
2022/03/17 11:46:50;;;;;;;12.45;2.55;;;10.70;99.90;;;;;;4934923;28;20035;-87
2022/03/17 11:49:27;;;;;;;14.90;2.73;;;10.80;99.90;;;;;;4962092;28;20075;-88
2022/03/17 11:52:02;;;;;;;11.95;2.60;;;10.90;99.90;;;;;;5013294;28;20067;-88
2022/03/17 11:54:29;;;;;;;13.75;3.00;;;11.40;99.90;;;;;;5007026;28;20045;-87
2022/03/17 11:57:00;;;;;;;11.35;2.30;;;11.00;99.90;;;;;;5006862;28;20410;-86
2022/03/17 11:59:50;;;;;;;12.48;2.90;;;11.10;99.90;;;;;;5004213;28;20046;-83
2022/03/17 12:02:17;;;;;;;12.45;2.90;;;11.30;99.90;;;;;;5005967;28;20375;-85
2022/03/17 12:04:54;;;;;;;11.75;2.40;;;11.40;99.90;;;;;;4993726;28;20037;-86
2022/03/17 12:07:20;;;;;;;11.15;2.53;;;12.50;99.90;;;;;;5010396;28;20056;-86
2022/03/17 12:09:47;;;;;;;9.68;2.28;;;11.20;99.90;;;;;;5012618;28;20401;-86
2022/03/17 12:12:23;;;;;;;15.50;2.83;;;10.90;99.90;;;;;;5007555;28;20036;-86
2022/03/17 12:14:55;;;;;;;10.13;2.28;;;10.60;99.90;;;;;;5022352;28;20088;-85
2022/03/17 12:17:23;;;;;;;14.00;2.63;;;10.60;99.90;;;;;;4991219;28;20510;-84
2022/03/17 12:20:08;;;;;;;11.82;2.03;;;10.60;99.90;;;;;;5013865;28;20037;-85
2022/03/17 12:22:40;;;;;;;12.65;2.70;;;10.70;99.90;;;;;;5027929;28;20489;-87
2022/03/17 12:25:13;;;;;;;13.23;2.70;;;10.80;99.90;;;;;;5008322;28;20045;-85
2022/03/17 12:27:40;;;;;;;15.43;2.80;;;10.40;99.90;;;;;;5025571;28;20037;-85
2022/03/17 12:30:07;;;;;;;13.63;2.67;;;10.80;99.90;;;;;;5010984;28;20116;-84
2022/03/17 12:32:36;;;;;;;11.73;2.13;;;10.70;99.90;;;;;;5026085;28;20524;-85
2022/03/17 12:35:03;;;;;;;13.15;2.53;;;10.70;99.90;;;;;;5027161;28;20060;-85
2022/03/17 12:37:31;;;;;;;12.20;2.58;;;10.70;99.90;;;;;;5022034;28;20466;-85
2022/03/17 12:39:59;;;;;;;12.10;2.65;;;10.70;99.90;;;;;;5027482;28;20037;-85
2022/03/17 12:42:28;;;;;;;13.15;3.00;;;10.80;99.90;;;;;;5007419;28;20036;-84
2022/03/17 12:44:56;;;;;;;12.27;2.65;;;11.00;99.90;;;;;;5013385;28;20069;-84
2022/03/17 12:47:24;;;;;;;10.93;2.20;;;11.20;99.90;;;;;;5007294;28;20521;-82
2022/03/17 12:49:51;;;;;;;11.02;2.58;;;11.30;99.90;;;;;;5023767;28;20120;-86
2022/03/17 12:52:39;;;;;;;9.75;2.28;;;11.30;99.90;;;;;;4994335;28;20041;-83
2022/03/17 12:55:08;;;;;;;11.77;2.58;;;11.10;99.90;;;;;;5006199;28;20464;-87
2022/03/17 12:57:34;;;;;;;11.68;2.35;;;11.00;99.90;;;;;;5009434;28;20048;-85
2022/03/17 13:00:02;;;;;;;10.88;1.95;;;11.00;99.90;;;;;;5026228;28;20041;-85